createdAt,value
2023-04-25T00:01:53.603Z,87.16
2023-04-25T00:04:22.784Z,87.17
2023-04-25T00:06:53.302Z,86.83
2023-04-25T00:09:23.237Z,86.25
2023-04-25T00:11:53.074Z,85.80
2023-04-25T00:14:19.976Z,85.01
2023-04-25T00:16:52.894Z,86.11
2023-04-25T00:19:21.990Z,86.15
2023-04-25T00:21:51.408Z,87.44
2023-04-25T00:24:22.926Z,86.63
2023-04-25T00:26:49.802Z,86.87
2023-04-25T00:29:16.638Z,87.39
2023-04-25T00:31:43.671Z,87.59
2023-04-25T00:34:10.604Z,87.47
2023-04-25T00:36:38.710Z,88.28
2023-04-25T00:39:08.092Z,88.62
2023-04-25T00:41:35.133Z,90.05
2023-04-25T00:44:03.963Z,90.74
2023-04-25T00:46:32.309Z,91.22
2023-04-25T00:48:59.251Z,91.23
2023-04-25T00:51:27.547Z,89.86
2023-04-25T00:53:54.942Z,89.70
2023-04-25T00:56:27.079Z,91.28
2023-04-25T00:58:58.136Z,91.14
2023-04-25T01:01:25.664Z,90.29
2023-04-25T01:03:55.350Z,91.28
2023-04-25T01:06:23.485Z,90.59
2023-04-25T01:08:50.555Z,90.00
2023-04-25T01:11:17.452Z,89.71
2023-04-25T01:13:47.778Z,89.56
2023-04-25T01:16:17.044Z,90.92
2023-04-25T01:18:44.693Z,90.85
2023-04-25T01:21:14.415Z,89.53
2023-04-25T01:23:44.449Z,89.00
2023-04-25T01:26:15.060Z,87.98
2023-04-25T01:32:46.185Z,88.24
2023-04-25T01:35:15.917Z,87.04
2023-04-25T01:37:44.438Z,86.54
2023-04-25T01:40:14.252Z,86.96
2023-04-25T01:42:43.346Z,87.11
2023-04-25T01:45:13.170Z,87.23
2023-04-25T01:47:41.191Z,86.99
2023-04-25T01:50:09.621Z,87.97
2023-04-25T01:52:40.061Z,86.37
2023-04-25T01:55:07.587Z,86.85
2023-04-25T01:57:36.730Z,86.38
2023-04-25T02:00:11.131Z,85.28
2023-04-25T02:02:40.462Z,84.57
2023-04-25T02:05:10.748Z,85.64
2023-04-25T02:07:38.536Z,84.56
2023-04-25T02:14:09.570Z,84.08
2023-04-25T02:16:36.905Z,83.44
2023-04-25T02:19:06.177Z,83.58
2023-04-25T02:21:37.994Z,82.96
2023-04-25T02:24:12.168Z,83.38
2023-04-25T02:26:40.385Z,84.40
2023-04-25T02:29:12.801Z,82.71
2023-04-25T02:31:44.664Z,82.65
2023-04-25T02:34:11.581Z,83.11
2023-04-25T02:36:38.549Z,82.73
2023-04-25T02:39:10.498Z,82.47
2023-04-25T02:41:37.344Z,82.73
2023-04-25T02:44:07.825Z,83.17
2023-04-25T02:46:39.843Z,82.09
2023-04-25T02:49:08.075Z,82.32
2023-04-25T02:51:35.048Z,81.76
2023-04-25T02:54:05.840Z,81.96
2023-04-25T02:56:32.834Z,81.67
2023-04-25T02:59:00.397Z,81.62
2023-04-25T03:01:30.648Z,81.61
2023-04-25T03:03:59.813Z,81.17
2023-04-25T03:06:26.869Z,84.08
2023-04-25T03:08:57.108Z,82.30
2023-04-25T03:11:26.342Z,81.02
2023-04-25T03:13:53.437Z,79.61
2023-04-25T03:16:22.006Z,80.04
2023-04-25T03:18:51.803Z,78.58
2023-04-25T03:21:21.217Z,77.95
2023-04-25T03:23:49.517Z,77.88
2023-04-25T03:26:16.562Z,78.17
2023-04-25T03:28:43.515Z,77.64
2023-04-25T03:31:11.709Z,77.89
2023-04-25T03:33:41.624Z,77.59
2023-04-25T03:36:09.244Z,76.42
2023-04-25T03:38:37.997Z,77.12
2023-04-25T03:41:07.128Z,76.18
2023-04-25T03:43:38.528Z,76.46
2023-04-25T03:46:05.792Z,76.07
2023-04-25T03:48:35.178Z,76.20
2023-04-25T03:51:02.133Z,76.66
2023-04-25T03:53:31.611Z,75.83
2023-04-25T03:55:59.936Z,76.59
2023-04-25T03:58:26.941Z,76.21
2023-04-25T04:00:56.129Z,76.03
2023-04-25T04:03:23.236Z,75.97
2023-04-25T04:05:51.614Z,76.55
2023-04-25T04:08:18.687Z,76.14
2023-04-25T04:10:45.664Z,74.82
2023-04-25T04:13:12.641Z,75.64
2023-04-25T04:15:42.240Z,76.57
2023-04-25T04:18:09.317Z,76.53
2023-04-25T04:20:36.330Z,75.32
2023-04-25T04:23:06.593Z,75.98
2023-04-25T04:25:38.102Z,76.37
2023-04-25T04:28:06.010Z,75.07
2023-04-25T04:30:37.292Z,75.23
2023-04-25T04:33:04.522Z,75.18
2023-04-25T04:35:31.730Z,75.31
2023-04-25T04:38:01.636Z,75.62
2023-04-25T04:40:28.816Z,74.91
2023-04-25T04:43:00.289Z,74.99
2023-04-25T04:45:28.917Z,75.59
2023-04-25T04:47:58.869Z,73.65
2023-04-25T04:50:25.993Z,73.55
2023-04-25T04:52:56.265Z,72.71
2023-04-25T04:55:23.177Z,72.58
2023-04-25T04:57:55.918Z,71.40
2023-04-25T05:00:23.022Z,71.38
2023-04-25T05:02:50.209Z,70.53
2023-04-25T05:05:17.537Z,71.85
2023-04-25T05:07:44.743Z,70.17
2023-04-25T05:10:14.406Z,70.03
2023-04-25T05:12:41.417Z,70.30
2023-04-25T05:15:08.943Z,69.25
2023-04-25T05:17:38.553Z,68.16
2023-04-25T05:20:10.540Z,67.23
2023-04-25T05:22:37.749Z,66.13
2023-04-25T05:25:05.683Z,64.35
2023-04-25T05:27:32.745Z,64.17
2023-04-25T05:29:59.905Z,63.45
2023-04-25T05:32:28.263Z,63.07
2023-04-25T05:34:56.109Z,63.84
2023-04-25T05:37:25.476Z,63.54
2023-04-25T05:39:52.522Z,64.13
2023-04-25T05:42:19.546Z,63.88
2023-04-25T05:44:48.957Z,63.58
2023-04-25T05:47:16.226Z,62.64
2023-04-25T05:49:45.784Z,59.97
2023-04-25T05:52:12.841Z,61.41
2023-04-25T05:54:40.020Z,61.18
2023-04-25T05:57:07.480Z,61.40
2023-04-25T05:59:34.612Z,60.68
2023-04-25T06:02:01.995Z,61.05
2023-04-25T06:04:29.408Z,60.78
2023-04-25T06:06:56.708Z,60.74
2023-04-25T06:09:26.671Z,60.21
2023-04-25T06:11:53.768Z,60.16
2023-04-25T06:14:20.908Z,59.46
2023-04-25T06:16:47.914Z,59.37
2023-04-25T06:19:14.890Z,59.41
2023-04-25T06:21:47.053Z,59.44
2023-04-25T06:24:14.195Z,58.96
2023-04-25T06:26:41.181Z,58.91
2023-04-25T06:29:08.231Z,58.65
2023-04-25T06:31:35.582Z,58.40
2023-04-25T06:34:05.313Z,58.40
2023-04-25T06:36:36.974Z,58.70
2023-04-25T06:39:06.973Z,58.14
2023-04-25T06:41:34.018Z,58.75
2023-04-25T06:44:03.554Z,57.93
2023-04-25T06:46:32.913Z,58.90
2023-04-25T06:49:02.580Z,58.87
2023-04-25T06:51:31.880Z,59.13
2023-04-25T06:53:59.123Z,58.61
2023-04-25T06:56:26.248Z,58.10
2023-04-25T06:58:53.511Z,57.75
2023-04-25T07:01:20.700Z,58.15
2023-04-25T07:03:48.140Z,57.45
2023-04-25T07:06:15.604Z,58.11
2023-04-25T07:08:42.725Z,58.34
2023-04-25T07:11:12.246Z,58.15
2023-04-25T07:13:41.670Z,57.83
2023-04-25T07:16:08.760Z,57.06
2023-04-25T07:18:36.046Z,55.92
2023-04-25T07:21:05.713Z,56.40
2023-04-25T07:23:32.823Z,57.88
2023-04-25T07:25:59.998Z,58.70
2023-04-25T07:28:26.994Z,59.04
2023-04-25T07:30:53.979Z,59.33
2023-04-25T07:33:24.426Z,59.50
2023-04-25T07:35:51.546Z,59.75
2023-04-25T07:38:18.671Z,59.21
2023-04-25T07:40:46.202Z,58.93
2023-04-25T07:43:17.976Z,58.39
2023-04-25T07:45:49.267Z,58.57
2023-04-25T07:48:19.946Z,56.86
2023-04-25T07:50:49.534Z,54.95
2023-04-25T07:53:19.294Z,55.18
2023-04-25T07:55:46.556Z,53.65
2023-04-25T07:58:22.254Z,53.60
2023-04-25T08:00:50.000Z,52.93
2023-04-25T08:03:20.119Z,54.38
2023-04-25T08:05:47.580Z,53.70
2023-04-25T08:08:17.169Z,54.08
2023-04-25T08:10:44.411Z,54.79
2023-04-25T08:13:11.568Z,53.35
2023-04-25T08:15:42.183Z,51.84
2023-04-25T08:18:09.594Z,53.68
2023-04-25T08:20:36.973Z,52.96
2023-04-25T08:23:04.249Z,52.62
2023-04-25T08:25:36.814Z,50.76
2023-04-25T08:28:07.070Z,50.77
2023-04-25T08:30:34.316Z,50.17
2023-04-25T08:33:04.484Z,50.23
2023-04-25T08:35:34.226Z,50.05
2023-04-25T08:38:02.232Z,51.61
2023-04-25T08:40:31.353Z,49.57
2023-04-25T08:42:59.436Z,47.95
2023-04-25T08:45:33.509Z,48.62
2023-04-25T08:48:02.063Z,48.56
2023-04-25T08:50:29.647Z,46.96
2023-04-25T08:53:02.775Z,47.56
2023-04-25T08:55:31.008Z,45.90
2023-04-25T08:58:03.864Z,45.00
2023-04-25T09:00:36.170Z,45.67
2023-04-25T09:03:04.463Z,45.88
2023-04-25T09:05:34.566Z,44.56
2023-04-25T09:08:03.295Z,44.51
2023-04-25T09:13:27.421Z,43.46
2023-04-25T09:16:02.171Z,43.19
2023-04-25T09:18:31.594Z,43.38
2023-04-25T09:21:14.371Z,42.77
2023-04-25T09:23:50.821Z,44.37
2023-04-25T09:26:21.062Z,45.41
2023-04-25T09:28:53.037Z,46.11
2023-04-25T09:31:27.354Z,46.71
2023-04-25T09:34:02.508Z,46.81
2023-04-25T09:36:31.808Z,46.52
2023-04-25T09:39:07.917Z,48.18
2023-04-25T09:41:44.604Z,47.68
2023-04-25T09:44:14.490Z,46.20
2023-04-25T09:46:44.079Z,45.68
2023-04-25T09:49:16.358Z,44.17
2023-04-25T09:51:43.441Z,44.75
2023-04-25T09:54:12.993Z,43.96
2023-04-25T09:56:40.187Z,44.36
2023-04-25T09:59:11.228Z,46.29
2023-04-25T10:01:42.593Z,47.76
2023-04-25T10:04:14.802Z,48.99
2023-04-25T10:06:44.220Z,49.92
2023-04-25T10:09:18.929Z,51.59
2023-04-25T10:11:54.621Z,53.43
2023-04-25T10:14:25.331Z,53.95
2023-04-25T10:16:56.609Z,57.77
2023-04-25T10:19:27.566Z,56.37
2023-04-25T10:22:36.611Z,55.45
2023-04-25T10:25:07.649Z,53.06
2023-04-25T10:27:36.141Z,49.63
2023-04-25T10:30:13.873Z,47.65
2023-04-25T10:32:44.888Z,45.62
2023-04-25T10:35:31.505Z,46.53
2023-04-25T10:38:01.111Z,48.89
2023-04-25T10:40:31.460Z,52.64
2023-04-25T10:43:41.441Z,52.33
2023-04-25T10:46:25.683Z,52.08
2023-04-25T10:48:56.235Z,51.31
2023-04-25T10:51:51.543Z,49.53
2023-04-25T10:54:23.260Z,47.49
2023-04-25T10:56:54.395Z,45.57
2023-04-25T10:59:26.273Z,43.87
2023-04-25T11:01:55.990Z,41.56
2023-04-25T11:04:33.081Z,40.87
2023-04-25T11:07:25.244Z,40.71
2023-04-25T11:09:55.315Z,40.49
2023-04-25T11:12:22.409Z,39.63
2023-04-25T11:14:49.729Z,36.89
2023-04-25T11:17:19.858Z,36.28
2023-04-25T11:19:50.578Z,36.36
2023-04-25T11:22:17.665Z,34.72
2023-04-25T11:24:45.148Z,35.95
2023-04-25T11:27:12.290Z,36.11
2023-04-25T11:29:42.167Z,36.87
2023-04-25T11:32:09.518Z,37.99
2023-04-25T11:34:39.099Z,39.38
2023-04-25T11:37:07.359Z,40.48
2023-04-25T11:39:34.365Z,47.51
2023-04-25T11:42:02.561Z,50.69
2023-04-25T11:44:31.747Z,55.05
2023-04-25T11:46:58.823Z,55.73
2023-04-25T11:49:32.545Z,53.31
2023-04-25T11:51:59.989Z,53.92
2023-04-25T11:54:27.367Z,50.59
2023-04-25T11:56:54.637Z,50.33
2023-04-25T11:59:28.193Z,51.75
2023-04-25T12:01:55.306Z,50.51
2023-04-25T12:04:25.661Z,49.71
2023-04-25T12:06:56.326Z,49.45
2023-04-25T12:09:34.625Z,48.48
2023-04-25T12:12:06.996Z,47.14
2023-04-25T12:14:38.394Z,45.70
2023-04-25T12:17:09.184Z,45.89
2023-04-25T12:19:41.816Z,45.20
2023-04-25T12:22:25.021Z,43.40
2023-04-25T12:24:55.297Z,43.28
2023-04-25T12:27:22.632Z,41.23
2023-04-25T12:29:55.834Z,40.56
2023-04-25T12:32:23.682Z,40.23
2023-04-25T12:34:51.112Z,41.16
2023-04-25T12:37:20.772Z,39.37
2023-04-25T12:39:50.469Z,39.25
2023-04-25T12:42:20.173Z,37.15
2023-04-25T12:44:49.534Z,36.98
2023-04-25T12:47:16.910Z,38.27
2023-04-25T12:49:43.886Z,38.67
2023-04-25T12:52:11.013Z,38.74
2023-04-25T12:54:38.028Z,39.53
2023-04-25T12:57:09.868Z,41.27
2023-04-25T12:59:39.346Z,43.65
2023-04-25T13:02:06.788Z,46.03
2023-04-25T13:04:34.070Z,44.31
2023-04-25T13:07:08.278Z,44.81
2023-04-25T13:09:35.507Z,42.93
2023-04-25T13:12:05.484Z,41.36
2023-04-25T13:14:32.672Z,41.11
2023-04-25T13:16:59.756Z,39.57
2023-04-25T13:19:29.574Z,41.21
2023-04-25T13:21:56.764Z,41.10
2023-04-25T13:24:23.741Z,41.84
2023-04-25T13:26:50.940Z,44.46
2023-04-25T13:29:18.194Z,44.35
2023-04-25T13:31:47.883Z,45.00
2023-04-25T13:34:14.972Z,44.12
2023-04-25T13:36:44.614Z,42.84
2023-04-25T13:39:14.588Z,41.05
2023-04-25T13:41:41.847Z,40.56
2023-04-25T13:44:08.866Z,39.89
2023-04-25T13:46:46.466Z,39.04
2023-04-25T13:49:14.738Z,38.64
2023-04-25T13:51:43.359Z,37.52
2023-04-25T13:54:15.769Z,37.47
2023-04-25T13:56:43.359Z,37.25
2023-04-25T13:59:15.232Z,37.96
2023-04-25T14:01:42.629Z,37.56
2023-04-25T14:04:09.947Z,37.39
2023-04-25T14:06:39.673Z,37.25
2023-04-25T14:09:08.215Z,38.20
2023-04-25T14:11:35.506Z,39.69
2023-04-25T14:14:05.102Z,39.64
2023-04-25T14:16:32.841Z,40.78
2023-04-25T14:19:00.382Z,41.56
2023-04-25T14:21:28.050Z,41.76
2023-04-25T14:23:55.917Z,43.39
2023-04-25T14:26:26.363Z,45.97
2023-04-25T14:28:58.509Z,47.47
2023-04-25T14:31:25.618Z,50.98
2023-04-25T14:33:52.970Z,51.66
2023-04-25T14:36:22.998Z,52.66
2023-04-25T14:38:50.146Z,53.11
2023-04-25T14:41:17.357Z,51.53
2023-04-25T14:43:47.026Z,49.56
2023-04-25T14:46:14.385Z,49.43
2023-04-25T14:48:46.840Z,49.36
2023-04-25T14:51:14.161Z,48.28
2023-04-25T14:53:42.507Z,47.37
2023-04-25T14:56:12.210Z,46.70
2023-04-25T14:58:41.040Z,45.83
2023-04-25T15:01:09.181Z,46.55
2023-04-25T15:03:36.789Z,47.36
2023-04-25T15:06:04.277Z,46.98
2023-04-25T15:08:37.044Z,46.15
2023-04-25T15:11:04.477Z,45.47
2023-04-25T15:13:36.407Z,45.60
2023-04-25T15:16:09.185Z,46.54
2023-04-25T15:18:38.727Z,46.18
2023-04-25T15:21:06.741Z,45.64
2023-04-25T15:23:33.868Z,45.09
2023-04-25T15:26:01.062Z,44.29
2023-04-25T15:28:32.511Z,44.70
2023-04-25T15:31:02.247Z,43.66
2023-04-25T15:33:34.297Z,44.60
2023-04-25T15:36:04.433Z,44.87
2023-04-25T15:38:34.010Z,45.35
2023-04-25T15:41:01.421Z,46.56
2023-04-25T15:43:31.068Z,47.31
2023-04-25T15:45:58.139Z,47.32
2023-04-25T15:48:25.486Z,47.81
2023-04-25T15:50:54.945Z,47.61
2023-04-25T15:53:22.087Z,45.70
2023-04-25T15:55:49.135Z,46.10
2023-04-25T15:58:20.039Z,46.12
2023-04-25T16:00:51.235Z,46.09
2023-04-25T16:03:18.729Z,44.67
2023-04-25T16:05:45.933Z,44.62
2023-04-25T16:08:13.190Z,45.47
2023-04-25T16:10:40.374Z,47.14
2023-04-25T16:13:07.745Z,45.59
2023-04-25T16:15:35.635Z,45.24
2023-04-25T16:18:03.631Z,45.14
2023-04-25T16:20:37.838Z,43.99
2023-04-25T16:23:07.358Z,42.70
2023-04-25T16:25:34.345Z,43.80
2023-04-25T16:28:01.460Z,43.11
2023-04-25T16:30:30.749Z,42.21
2023-04-25T16:32:57.993Z,42.86
2023-04-25T16:35:25.707Z,43.07
2023-04-25T16:37:55.426Z,43.44
2023-04-25T16:40:22.493Z,43.27
2023-04-25T16:42:49.582Z,43.87
2023-04-25T16:45:21.525Z,45.16
2023-04-25T16:47:48.764Z,48.85
2023-04-25T16:50:16.728Z,51.72
2023-04-25T16:52:44.591Z,52.45
2023-04-25T16:55:12.161Z,51.18
2023-04-25T16:57:43.821Z,51.99
2023-04-25T17:00:13.608Z,53.31
2023-04-25T17:02:45.831Z,50.26
2023-04-25T17:05:13.623Z,50.51
2023-04-25T17:07:40.776Z,50.40
2023-04-25T17:10:08.866Z,49.75
2023-04-25T17:12:38.407Z,50.10
2023-04-25T17:15:09.066Z,49.92
2023-04-25T17:17:38.276Z,50.16
2023-04-25T17:20:07.303Z,50.66
2023-04-25T17:22:36.360Z,51.86
2023-04-25T17:25:08.906Z,52.28
2023-04-25T17:27:37.407Z,51.92
2023-04-25T17:30:07.137Z,51.40
2023-04-25T17:32:34.717Z,51.09
2023-04-25T17:35:02.454Z,51.61
2023-04-25T17:37:35.479Z,50.67
2023-04-25T17:40:05.151Z,50.29
2023-04-25T17:42:35.196Z,51.79
2023-04-25T17:45:02.274Z,51.63
2023-04-25T17:47:32.334Z,52.32
2023-04-25T17:49:59.294Z,53.79
2023-04-25T17:52:26.618Z,54.20
2023-04-25T17:54:53.827Z,54.38
2023-04-25T17:57:25.438Z,55.05
2023-04-25T17:59:53.777Z,54.98
2023-04-25T18:02:21.940Z,55.11
2023-04-25T18:04:49.300Z,55.63
2023-04-25T18:07:18.443Z,56.15
2023-04-25T18:09:47.614Z,55.76
2023-04-25T18:12:15.333Z,56.56
2023-04-25T18:14:42.353Z,57.02
2023-04-25T18:17:09.926Z,56.74
2023-04-25T18:19:41.446Z,57.08
2023-04-25T18:22:08.439Z,57.52
2023-04-25T18:24:40.390Z,57.66
2023-04-25T18:27:07.344Z,58.25
2023-04-25T18:29:34.380Z,58.86
2023-04-25T18:32:02.267Z,57.98
2023-04-25T18:34:29.350Z,58.67
2023-04-25T18:36:59.330Z,59.11
2023-04-25T18:39:27.181Z,59.86
2023-04-25T18:42:03.299Z,60.12
2023-04-25T18:44:35.602Z,59.69
2023-04-25T18:47:07.746Z,59.91
2023-04-25T18:49:40.184Z,60.16
2023-04-25T18:52:12.813Z,61.94
2023-04-25T18:54:39.808Z,62.50
2023-04-25T18:57:06.782Z,62.46
2023-04-25T18:59:34.143Z,62.43
2023-04-25T19:02:05.365Z,63.98
2023-04-25T19:04:32.769Z,64.11
2023-04-25T19:06:59.856Z,64.16
2023-04-25T19:09:26.999Z,64.60
2023-04-25T19:11:58.468Z,64.81
2023-04-25T19:14:26.179Z,64.45
2023-04-25T19:16:54.043Z,63.51
2023-04-25T19:19:21.014Z,65.04
2023-04-25T19:21:50.898Z,66.20
2023-04-25T19:24:17.825Z,65.10
2023-04-25T19:26:46.889Z,65.93
2023-04-25T19:29:17.230Z,65.40
2023-04-25T19:31:45.801Z,65.26
2023-04-25T19:34:16.493Z,65.65
2023-04-25T19:36:45.809Z,64.40
2023-04-25T19:39:13.059Z,64.78
2023-04-25T19:41:40.274Z,64.78
2023-04-25T19:44:10.131Z,64.00
2023-04-25T19:46:37.994Z,64.11
2023-04-25T19:49:08.936Z,63.20
2023-04-25T19:51:38.673Z,62.71
2023-04-25T19:54:08.056Z,62.66
2023-04-25T19:56:35.109Z,62.74
2023-04-25T19:59:02.024Z,62.73
2023-04-25T20:01:29.457Z,62.70
2023-04-25T20:03:56.754Z,62.54
2023-04-25T20:06:23.906Z,62.52
2023-04-25T20:08:53.878Z,62.84
2023-04-25T20:11:21.862Z,63.88
2023-04-25T20:13:48.868Z,63.71
2023-04-25T20:16:19.873Z,64.00
2023-04-25T20:18:50.541Z,65.23
2023-04-25T20:21:20.423Z,64.93
2023-04-25T20:23:49.976Z,64.94
2023-04-25T20:26:19.676Z,66.08
2023-04-25T20:28:51.386Z,67.08
2023-04-25T20:31:18.783Z,66.79
2023-04-25T20:33:46.372Z,66.98
2023-04-25T20:36:15.611Z,66.39
2023-04-25T20:38:42.547Z,66.97
2023-04-25T20:41:12.284Z,67.38
2023-04-25T20:43:40.372Z,69.44
2023-04-25T20:46:07.373Z,70.71
2023-04-25T20:48:36.440Z,70.27
2023-04-25T20:51:04.025Z,69.55
2023-04-25T20:53:31.095Z,69.26
2023-04-25T20:56:01.068Z,70.38
2023-04-25T20:58:28.749Z,69.88
2023-04-25T21:00:56.562Z,70.73
2023-04-25T21:03:26.037Z,70.29
2023-04-25T21:05:53.184Z,71.55
2023-04-25T21:08:25.774Z,71.50
2023-04-25T21:11:02.570Z,71.41
2023-04-25T21:13:29.818Z,72.43
2023-04-25T21:16:00.899Z,72.90
2023-04-25T21:21:22.805Z,73.08
2023-04-25T21:24:14.606Z,72.59
2023-04-25T21:26:44.453Z,72.88
2023-04-25T21:29:14.254Z,74.13
2023-04-25T21:31:42.732Z,73.64
2023-04-25T21:34:09.993Z,74.07
2023-04-25T21:36:37.612Z,72.85
2023-04-25T21:39:08.291Z,74.03
2023-04-25T21:41:41.385Z,74.00
2023-04-25T21:44:18.067Z,73.67
2023-04-25T21:46:49.855Z,73.38
2023-04-25T21:49:19.401Z,72.97
2023-04-25T21:51:57.507Z,74.44
2023-04-25T21:54:35.615Z,73.36
2023-04-25T21:57:07.552Z,73.99
2023-04-25T21:59:37.575Z,73.92
2023-04-25T22:02:09.325Z,73.06
2023-04-25T22:04:37.658Z,73.62
2023-04-25T22:07:05.502Z,73.79
2023-04-25T22:09:51.342Z,73.35
2023-04-25T22:12:28.699Z,73.31
2023-04-25T22:14:58.855Z,74.04
2023-04-25T22:17:32.151Z,72.73
2023-04-25T22:20:16.554Z,74.23
2023-04-25T22:22:46.672Z,74.20
2023-04-25T22:25:17.195Z,74.15
2023-04-25T22:27:48.349Z,74.58
2023-04-25T22:30:23.735Z,74.30
2023-04-25T22:32:51.209Z,73.85
2023-04-25T22:35:24.562Z,73.97
2023-04-25T22:38:01.760Z,73.88
2023-04-25T22:40:29.409Z,74.82
2023-04-25T22:43:02.125Z,73.81
2023-04-25T22:45:29.894Z,74.24
2023-04-25T22:48:02.129Z,74.30
2023-04-25T22:50:30.240Z,74.03
2023-04-25T22:52:57.595Z,75.01
2023-04-25T22:55:31.254Z,74.24
2023-04-25T22:58:07.396Z,75.50
2023-04-25T23:00:35.598Z,75.42
2023-04-25T23:03:04.528Z,75.02
2023-04-25T23:05:41.876Z,75.63
2023-04-25T23:08:12.969Z,75.50
2023-04-25T23:10:58.531Z,75.09
2023-04-25T23:13:45.561Z,75.00
2023-04-25T23:16:28.004Z,75.98
2023-04-25T23:18:56.051Z,74.99
2023-04-25T23:21:42.702Z,74.97
2023-04-25T23:24:27.278Z,75.71
2023-04-25T23:27:05.326Z,75.76
2023-04-25T23:29:47.000Z,75.78
2023-04-25T23:32:15.160Z,75.54
2023-04-25T23:34:47.214Z,74.72
2023-04-25T23:37:20.564Z,75.71
2023-04-25T23:40:19.788Z,76.73
2023-04-25T23:42:53.976Z,76.38
2023-04-25T23:45:49.872Z,75.89
2023-04-25T23:48:20.681Z,76.03
2023-04-25T23:50:53.065Z,76.57
2023-04-25T23:53:45.637Z,76.65
2023-04-25T23:56:21.954Z,76.28
2023-04-25T23:58:54.015Z,76.37
